createdAt,value
2022-11-13T00:01:42.634Z,7.49
2022-11-13T00:12:06.056Z,7.33
2022-11-13T00:22:27.291Z,7.09
2022-11-13T00:32:49.890Z,7.04
2022-11-13T00:43:11.137Z,6.82
2022-11-13T00:53:36.277Z,6.52
2022-11-13T01:03:58.033Z,6.23
2022-11-13T01:14:21.117Z,6.46
2022-11-13T01:24:42.584Z,6.58
2022-11-13T01:35:06.065Z,6.63
2022-11-13T01:46:19.417Z,6.64
2022-11-13T01:56:42.426Z,6.56
2022-11-13T02:07:06.844Z,6.59
2022-11-13T02:17:34.445Z,6.49
2022-11-13T02:27:57.398Z,6.62
2022-11-13T02:38:18.668Z,6.62
2022-11-13T02:48:41.429Z,6.53
2022-11-13T02:59:03.117Z,6.42
2022-11-13T03:09:26.165Z,6.34
2022-11-13T03:19:47.771Z,6.29
2022-11-13T03:30:11.917Z,6.24
2022-11-13T03:40:33.317Z,6.30
2022-11-13T03:50:57.034Z,6.72
2022-11-13T04:01:18.463Z,6.99
2022-11-13T04:11:41.950Z,7.28
2022-11-13T04:22:03.589Z,7.66
2022-11-13T04:32:26.299Z,7.74
2022-11-13T04:42:50.456Z,7.69
2022-11-13T04:53:13.194Z,7.68
2022-11-13T05:03:34.621Z,7.53
2022-11-13T05:14:02.151Z,7.39
2022-11-13T05:24:24.625Z,7.17
2022-11-13T05:34:47.453Z,6.89
2022-11-13T05:45:10.301Z,6.48
2022-11-13T05:55:32.971Z,6.01
2022-11-13T06:05:54.288Z,5.57
2022-11-13T06:16:19.356Z,5.19
2022-11-13T06:26:40.741Z,4.92
2022-11-13T06:37:03.827Z,4.73
2022-11-13T06:47:25.302Z,4.92
2022-11-13T06:57:48.347Z,5.05
2022-11-13T07:08:09.601Z,5.17
2022-11-13T07:18:32.716Z,5.29
2022-11-13T07:28:54.226Z,5.28
2022-11-13T07:39:17.294Z,5.22
2022-11-13T07:49:38.788Z,5.22
2022-11-13T08:00:01.569Z,5.35
2022-11-13T08:10:22.905Z,5.41
2022-11-13T08:20:45.854Z,5.66
2022-11-13T08:31:12.232Z,5.86
2022-11-13T08:41:35.212Z,6.02
2022-11-13T08:51:56.625Z,6.41
2022-11-13T09:02:19.656Z,6.71
2022-11-13T09:12:43.832Z,6.84
2022-11-13T09:23:09.284Z,7.24
2022-11-13T09:33:31.330Z,7.60
2022-11-13T09:43:59.750Z,8.11
2022-11-13T09:54:25.802Z,8.64
2022-11-13T10:05:02.122Z,8.98
2022-11-13T10:15:23.957Z,9.16
2022-11-13T10:26:01.375Z,9.29
2022-11-13T10:36:32.794Z,9.60
2022-11-13T10:58:14.843Z,10.67
2022-11-13T11:08:47.386Z,11.11
2022-11-13T11:19:14.182Z,11.38
2022-11-13T11:29:42.546Z,11.58
2022-11-13T11:40:17.500Z,11.74
2022-11-13T11:50:48.704Z,11.95
2022-11-13T12:01:18.645Z,12.10
2022-11-13T12:11:58.244Z,12.45
2022-11-13T12:22:31.101Z,12.69
2022-11-13T12:33:19.880Z,13.01
2022-11-13T12:44:16.107Z,13.28
2022-11-13T12:54:40.909Z,13.41
2022-11-13T13:05:15.085Z,13.67
2022-11-13T13:15:40.448Z,13.74
2022-11-13T13:26:18.094Z,14.07
2022-11-13T13:36:47.761Z,14.17
2022-11-13T13:47:18.696Z,14.41
2022-11-13T13:57:47.394Z,14.52
2022-11-13T14:08:18.398Z,14.52
2022-11-13T14:18:41.719Z,14.59
2022-11-13T14:29:14.771Z,14.52
2022-11-13T14:39:38.023Z,14.50
2022-11-13T14:50:10.726Z,14.11
2022-11-13T15:00:49.578Z,13.78
2022-11-13T15:11:15.018Z,13.42
2022-11-13T15:21:38.151Z,13.06
2022-11-13T15:31:59.841Z,12.74
2022-11-13T15:42:34.539Z,12.45
2022-11-13T15:53:02.346Z,12.10
2022-11-13T16:03:28.298Z,11.68
2022-11-13T16:13:50.146Z,11.36
2022-11-13T16:24:13.427Z,10.81
2022-11-13T16:34:34.952Z,10.25
2022-11-13T16:44:57.732Z,9.71
2022-11-13T16:55:19.121Z,9.32
2022-11-13T17:05:41.934Z,9.01
2022-11-13T17:16:03.471Z,8.65
2022-11-13T17:26:27.113Z,8.48
2022-11-13T17:36:48.518Z,8.54
2022-11-13T17:47:11.665Z,8.36
2022-11-13T17:57:33.320Z,8.18
2022-11-13T18:07:56.063Z,8.19
2022-11-13T18:18:17.450Z,8.02
2022-11-13T18:28:41.709Z,7.92
2022-11-13T18:39:03.940Z,7.88
2022-11-13T18:49:26.766Z,7.78
2022-11-13T18:59:48.346Z,7.73
2022-11-13T19:10:11.164Z,7.64
2022-11-13T19:20:32.642Z,7.52
2022-11-13T19:30:55.906Z,7.33
2022-11-13T19:41:17.706Z,7.12
2022-11-13T19:51:40.644Z,7.15
2022-11-13T20:02:02.016Z,7.02
2022-11-13T20:12:25.165Z,6.81
2022-11-13T20:22:46.623Z,6.75
2022-11-13T20:33:09.290Z,6.79
2022-11-13T20:43:32.230Z,6.76
2022-11-13T20:53:56.055Z,6.60
2022-11-13T21:04:17.559Z,6.45
2022-11-13T21:14:40.513Z,6.39
2022-11-13T21:25:02.135Z,6.45
2022-11-13T21:35:24.882Z,6.42
2022-11-13T21:45:46.841Z,6.32
2022-11-13T21:56:15.280Z,6.21
2022-11-13T22:06:37.508Z,6.13
2022-11-13T22:17:00.326Z,6.06
2022-11-13T22:27:21.616Z,6.02
2022-11-13T22:37:44.270Z,5.83
2022-11-13T22:48:06.602Z,5.72
2022-11-13T22:58:30.192Z,5.90
2022-11-13T23:08:53.114Z,5.99
2022-11-13T23:19:16.408Z,6.12
2022-11-13T23:29:37.940Z,6.04
2022-11-13T23:40:00.553Z,5.92
2022-11-13T23:50:21.703Z,5.74
